sensor_id;sensor_type;location;lat;lon;timestamp;P1;durP1;ratioP1;P2;durP2;ratioP2
5945;SDS011;2998;48.206;16.394;2022-09-09T00:01:08;3.83;;;3.53;;
5945;SDS011;2998;48.206;16.394;2022-09-09T00:03:43;3.80;;;3.50;;
5945;SDS011;2998;48.206;16.394;2022-09-09T00:06:14;2.83;;;2.50;;
5945;SDS011;2998;48.206;16.394;2022-09-09T00:08:48;2.20;;;2.10;;
5945;SDS011;2998;48.206;16.394;2022-09-09T00:11:26;2.87;;;2.43;;
5945;SDS011;2998;48.206;16.394;2022-09-09T00:13:57;4.30;;;2.23;;
5945;SDS011;2998;48.206;16.394;2022-09-09T00:16:27;2.07;;;1.97;;
5945;SDS011;2998;48.206;16.394;2022-09-09T00:19:00;2.30;;;2.10;;
5945;SDS011;2998;48.206;16.394;2022-09-09T00:21:30;2.40;;;2.30;;
5945;SDS011;2998;48.206;16.394;2022-09-09T00:24:04;4.90;;;2.53;;
5945;SDS011;2998;48.206;16.394;2022-09-09T00:26:39;3.03;;;2.50;;
5945;SDS011;2998;48.206;16.394;2022-09-09T00:29:12;2.50;;;2.30;;
5945;SDS011;2998;48.206;16.394;2022-09-09T00:31:44;4.80;;;2.20;;
5945;SDS011;2998;48.206;16.394;2022-09-09T00:34:14;2.10;;;2.00;;
5945;SDS011;2998;48.206;16.394;2022-09-09T00:36:43;4.00;;;2.17;;
5945;SDS011;2998;48.206;16.394;2022-09-09T00:39:13;2.73;;;2.63;;
5945;SDS011;2998;48.206;16.394;2022-09-09T00:41:59;2.30;;;2.20;;
5945;SDS011;2998;48.206;16.394;2022-09-09T00:44:36;2.60;;;2.50;;
5945;SDS011;2998;48.206;16.394;2022-09-09T00:47:12;3.50;;;2.20;;
5945;SDS011;2998;48.206;16.394;2022-09-09T00:49:50;2.70;;;2.53;;
5945;SDS011;2998;48.206;16.394;2022-09-09T00:52:30;2.40;;;2.30;;
5945;SDS011;2998;48.206;16.394;2022-09-09T00:55:04;4.90;;;2.27;;
5945;SDS011;2998;48.206;16.394;2022-09-09T00:57:36;3.50;;;2.63;;
5945;SDS011;2998;48.206;16.394;2022-09-09T01:00:18;3.10;;;2.90;;
5945;SDS011;2998;48.206;16.394;2022-09-09T01:02:52;3.10;;;2.90;;
5945;SDS011;2998;48.206;16.394;2022-09-09T01:05:35;5.80;;;3.43;;
5945;SDS011;2998;48.206;16.394;2022-09-09T01:08:06;3.63;;;3.33;;
5945;SDS011;2998;48.206;16.394;2022-09-09T01:10:41;4.63;;;4.33;;
5945;SDS011;2998;48.206;16.394;2022-09-09T01:13:16;7.13;;;5.30;;
5945;SDS011;2998;48.206;16.394;2022-09-09T01:15:48;4.90;;;4.60;;
5945;SDS011;2998;48.206;16.394;2022-09-09T01:18:17;10.97;;;4.10;;
5945;SDS011;2998;48.206;16.394;2022-09-09T01:20:49;3.40;;;3.20;;
5945;SDS011;2998;48.206;16.394;2022-09-09T01:26:18;3.10;;;2.80;;
5945;SDS011;2998;48.206;16.394;2022-09-09T01:28:50;3.80;;;2.97;;
5945;SDS011;2998;48.206;16.394;2022-09-09T01:31:20;3.50;;;3.30;;
5945;SDS011;2998;48.206;16.394;2022-09-09T01:33:50;3.63;;;3.33;;
5945;SDS011;2998;48.206;16.394;2022-09-09T01:36:20;3.00;;;2.80;;
5945;SDS011;2998;48.206;16.394;2022-09-09T01:38:51;2.83;;;2.63;;
5945;SDS011;2998;48.206;16.394;2022-09-09T01:41:21;5.57;;;2.40;;
5945;SDS011;2998;48.206;16.394;2022-09-09T01:43:49;3.77;;;2.40;;
5945;SDS011;2998;48.206;16.394;2022-09-09T01:46:17;3.00;;;2.80;;
5945;SDS011;2998;48.206;16.394;2022-09-09T01:48:49;3.00;;;2.30;;
5945;SDS011;2998;48.206;16.394;2022-09-09T01:51:17;3.37;;;3.03;;
5945;SDS011;2998;48.206;16.394;2022-09-09T01:53:45;6.63;;;2.33;;
5945;SDS011;2998;48.206;16.394;2022-09-09T01:56:21;2.80;;;2.13;;
5945;SDS011;2998;48.206;16.394;2022-09-09T01:59:01;4.40;;;3.87;;
5945;SDS011;2998;48.206;16.394;2022-09-09T02:01:35;5.90;;;2.70;;
5945;SDS011;2998;48.206;16.394;2022-09-09T02:04:11;2.57;;;2.37;;
5945;SDS011;2998;48.206;16.394;2022-09-09T02:06:46;3.50;;;3.30;;
5945;SDS011;2998;48.206;16.394;2022-09-09T02:09:16;4.33;;;3.93;;
5945;SDS011;2998;48.206;16.394;2022-09-09T02:11:46;3.43;;;3.00;;
5945;SDS011;2998;48.206;16.394;2022-09-09T02:14:16;3.43;;;3.23;;
5945;SDS011;2998;48.206;16.394;2022-09-09T02:16:47;4.10;;;2.87;;
5945;SDS011;2998;48.206;16.394;2022-09-09T02:19:19;3.97;;;2.67;;
5945;SDS011;2998;48.206;16.394;2022-09-09T02:21:52;7.67;;;4.20;;
5945;SDS011;2998;48.206;16.394;2022-09-09T02:24:22;10.67;;;9.60;;
5945;SDS011;2998;48.206;16.394;2022-09-09T02:26:52;7.23;;;6.53;;
5945;SDS011;2998;48.206;16.394;2022-09-09T02:29:22;5.90;;;5.50;;
5945;SDS011;2998;48.206;16.394;2022-09-09T02:31:52;4.00;;;3.60;;
5945;SDS011;2998;48.206;16.394;2022-09-09T02:34:21;6.70;;;6.23;;
5945;SDS011;2998;48.206;16.394;2022-09-09T02:36:51;12.13;;;8.00;;
5945;SDS011;2998;48.206;16.394;2022-09-09T02:39:21;7.13;;;6.63;;
5945;SDS011;2998;48.206;16.394;2022-09-09T02:41:49;6.00;;;5.60;;
5945;SDS011;2998;48.206;16.394;2022-09-09T02:44:18;5.90;;;5.60;;
5945;SDS011;2998;48.206;16.394;2022-09-09T02:46:58;5.10;;;4.70;;
5945;SDS011;2998;48.206;16.394;2022-09-09T02:49:35;3.93;;;3.73;;
5945;SDS011;2998;48.206;16.394;2022-09-09T02:52:08;4.20;;;3.33;;
5945;SDS011;2998;48.206;16.394;2022-09-09T02:54:41;8.87;;;5.57;;
5945;SDS011;2998;48.206;16.394;2022-09-09T02:57:11;4.93;;;4.60;;
5945;SDS011;2998;48.206;16.394;2022-09-09T02:59:41;4.30;;;4.10;;
5945;SDS011;2998;48.206;16.394;2022-09-09T03:02:11;5.13;;;4.60;;
5945;SDS011;2998;48.206;16.394;2022-09-09T03:04:39;4.87;;;4.00;;
5945;SDS011;2998;48.206;16.394;2022-09-09T03:07:09;4.50;;;4.20;;
5945;SDS011;2998;48.206;16.394;2022-09-09T03:09:37;4.20;;;3.93;;
5945;SDS011;2998;48.206;16.394;2022-09-09T03:12:05;4.33;;;3.00;;
5945;SDS011;2998;48.206;16.394;2022-09-09T03:14:33;2.43;;;2.33;;
5945;SDS011;2998;48.206;16.394;2022-09-09T03:17:02;2.63;;;2.53;;
5945;SDS011;2998;48.206;16.394;2022-09-09T03:19:31;2.50;;;2.40;;
5945;SDS011;2998;48.206;16.394;2022-09-09T03:21:59;4.93;;;2.10;;
5945;SDS011;2998;48.206;16.394;2022-09-09T03:24:27;3.50;;;2.70;;
5945;SDS011;2998;48.206;16.394;2022-09-09T03:26:55;3.60;;;2.50;;
5945;SDS011;2998;48.206;16.394;2022-09-09T03:29:23;8.93;;;2.80;;
5945;SDS011;2998;48.206;16.394;2022-09-09T03:31:51;2.50;;;2.40;;
5945;SDS011;2998;48.206;16.394;2022-09-09T03:34:21;6.73;;;2.43;;
5945;SDS011;2998;48.206;16.394;2022-09-09T03:36:49;2.83;;;2.73;;
5945;SDS011;2998;48.206;16.394;2022-09-09T03:39:17;2.77;;;2.50;;
5945;SDS011;2998;48.206;16.394;2022-09-09T03:41:44;5.87;;;2.00;;
5945;SDS011;2998;48.206;16.394;2022-09-09T03:44:14;7.40;;;6.70;;
5945;SDS011;2998;48.206;16.394;2022-09-09T03:46:42;6.43;;;5.67;;
5945;SDS011;2998;48.206;16.394;2022-09-09T03:49:10;5.03;;;4.63;;
5945;SDS011;2998;48.206;16.394;2022-09-09T03:51:40;4.83;;;4.53;;
5945;SDS011;2998;48.206;16.394;2022-09-09T03:54:08;3.57;;;3.37;;
5945;SDS011;2998;48.206;16.394;2022-09-09T03:56:36;4.30;;;4.10;;
5945;SDS011;2998;48.206;16.394;2022-09-09T03:59:05;9.33;;;3.53;;
5945;SDS011;2998;48.206;16.394;2022-09-09T04:01:33;3.50;;;3.20;;
5945;SDS011;2998;48.206;16.394;2022-09-09T04:04:01;9.00;;;4.37;;
5945;SDS011;2998;48.206;16.394;2022-09-09T04:06:29;3.70;;;3.17;;
5945;SDS011;2998;48.206;16.394;2022-09-09T04:08:59;5.33;;;3.30;;
5945;SDS011;2998;48.206;16.394;2022-09-09T04:11:28;3.67;;;3.37;;
5945;SDS011;2998;48.206;16.394;2022-09-09T04:13:56;6.43;;;2.30;;
5945;SDS011;2998;48.206;16.394;2022-09-09T04:16:24;2.77;;;2.63;;
5945;SDS011;2998;48.206;16.394;2022-09-09T04:18:52;2.93;;;2.50;;
5945;SDS011;2998;48.206;16.394;2022-09-09T04:21:20;3.03;;;2.93;;
5945;SDS011;2998;48.206;16.394;2022-09-09T04:23:49;3.90;;;3.60;;
5945;SDS011;2998;48.206;16.394;2022-09-09T04:26:19;5.00;;;4.37;;
5945;SDS011;2998;48.206;16.394;2022-09-09T04:28:47;3.40;;;3.17;;
5945;SDS011;2998;48.206;16.394;2022-09-09T04:31:17;3.10;;;2.90;;
5945;SDS011;2998;48.206;16.394;2022-09-09T04:33:46;4.10;;;3.20;;
5945;SDS011;2998;48.206;16.394;2022-09-09T04:36:14;4.17;;;3.87;;
5945;SDS011;2998;48.206;16.394;2022-09-09T04:38:43;4.37;;;3.00;;
5945;SDS011;2998;48.206;16.394;2022-09-09T04:41:11;3.03;;;2.80;;
5945;SDS011;2998;48.206;16.394;2022-09-09T04:43:41;3.57;;;2.23;;
5945;SDS011;2998;48.206;16.394;2022-09-09T04:46:09;3.43;;;3.23;;
5945;SDS011;2998;48.206;16.394;2022-09-09T04:48:37;3.20;;;3.00;;
5945;SDS011;2998;48.206;16.394;2022-09-09T04:51:06;4.90;;;3.40;;
5945;SDS011;2998;48.206;16.394;2022-09-09T04:53:36;3.40;;;3.30;;
5945;SDS011;2998;48.206;16.394;2022-09-09T04:56:04;6.77;;;6.17;;
5945;SDS011;2998;48.206;16.394;2022-09-09T04:58:33;5.23;;;4.87;;
5945;SDS011;2998;48.206;16.394;2022-09-09T05:01:05;6.50;;;5.40;;
5945;SDS011;2998;48.206;16.394;2022-09-09T05:03:34;5.40;;;4.90;;
5945;SDS011;2998;48.206;16.394;2022-09-09T05:06:03;4.40;;;4.10;;
5945;SDS011;2998;48.206;16.394;2022-09-09T05:08:32;4.17;;;3.80;;
5945;SDS011;2998;48.206;16.394;2022-09-09T05:11:00;4.50;;;4.20;;
5945;SDS011;2998;48.206;16.394;2022-09-09T05:13:29;2.73;;;2.53;;
5945;SDS011;2998;48.206;16.394;2022-09-09T05:15:58;2.80;;;2.60;;
5945;SDS011;2998;48.206;16.394;2022-09-09T05:18:28;2.70;;;1.90;;
5945;SDS011;2998;48.206;16.394;2022-09-09T05:20:58;3.30;;;2.20;;
5945;SDS011;2998;48.206;16.394;2022-09-09T05:23:26;2.10;;;1.90;;
5945;SDS011;2998;48.206;16.394;2022-09-09T05:25:55;2.23;;;1.63;;
5945;SDS011;2998;48.206;16.394;2022-09-09T05:28:23;6.47;;;1.50;;
5945;SDS011;2998;48.206;16.394;2022-09-09T05:30:56;2.20;;;1.50;;
5945;SDS011;2998;48.206;16.394;2022-09-09T05:33:24;2.30;;;2.20;;
5945;SDS011;2998;48.206;16.394;2022-09-09T05:35:58;2.53;;;2.43;;
5945;SDS011;2998;48.206;16.394;2022-09-09T05:38:28;2.90;;;2.70;;
5945;SDS011;2998;48.206;16.394;2022-09-09T05:40:56;5.87;;;2.63;;
5945;SDS011;2998;48.206;16.394;2022-09-09T05:43:24;5.53;;;2.40;;
5945;SDS011;2998;48.206;16.394;2022-09-09T05:46:00;2.33;;;2.13;;
5945;SDS011;2998;48.206;16.394;2022-09-09T05:48:29;1.80;;;1.70;;
5945;SDS011;2998;48.206;16.394;2022-09-09T05:51:00;3.20;;;1.90;;
5945;SDS011;2998;48.206;16.394;2022-09-09T05:53:29;1.80;;;1.70;;
5945;SDS011;2998;48.206;16.394;2022-09-09T05:56:01;1.40;;;1.30;;
5945;SDS011;2998;48.206;16.394;2022-09-09T05:58:30;1.17;;;1.07;;
5945;SDS011;2998;48.206;16.394;2022-09-09T06:01:03;1.30;;;1.20;;
5945;SDS011;2998;48.206;16.394;2022-09-09T06:03:31;2.50;;;1.30;;
5945;SDS011;2998;48.206;16.394;2022-09-09T06:06:02;3.40;;;1.60;;
5945;SDS011;2998;48.206;16.394;2022-09-09T06:08:32;1.50;;;1.40;;
5945;SDS011;2998;48.206;16.394;2022-09-09T06:11:01;1.70;;;1.60;;
5945;SDS011;2998;48.206;16.394;2022-09-09T06:13:30;5.03;;;2.03;;
5945;SDS011;2998;48.206;16.394;2022-09-09T06:15:58;2.80;;;1.77;;
5945;SDS011;2998;48.206;16.394;2022-09-09T06:18:27;4.90;;;1.50;;
5945;SDS011;2998;48.206;16.394;2022-09-09T06:20:56;1.43;;;1.33;;
5945;SDS011;2998;48.206;16.394;2022-09-09T06:23:26;1.57;;;1.47;;
5945;SDS011;2998;48.206;16.394;2022-09-09T06:26:03;4.90;;;1.40;;
5945;SDS011;2998;48.206;16.394;2022-09-09T06:28:33;1.83;;;1.20;;
5945;SDS011;2998;48.206;16.394;2022-09-09T06:31:02;1.73;;;1.50;;
5945;SDS011;2998;48.206;16.394;2022-09-09T06:33:31;1.47;;;1.37;;
5945;SDS011;2998;48.206;16.394;2022-09-09T06:36:01;3.47;;;1.57;;
5945;SDS011;2998;48.206;16.394;2022-09-09T06:38:31;2.53;;;1.40;;
5945;SDS011;2998;48.206;16.394;2022-09-09T06:40:59;1.80;;;1.70;;
5945;SDS011;2998;48.206;16.394;2022-09-09T06:43:28;2.30;;;1.20;;
5945;SDS011;2998;48.206;16.394;2022-09-09T06:45:57;2.70;;;1.53;;
5945;SDS011;2998;48.206;16.394;2022-09-09T06:48:26;1.70;;;1.60;;
5945;SDS011;2998;48.206;16.394;2022-09-09T06:51:02;3.43;;;1.50;;
5945;SDS011;2998;48.206;16.394;2022-09-09T06:53:32;1.47;;;1.37;;
5945;SDS011;2998;48.206;16.394;2022-09-09T06:56:01;1.40;;;1.30;;
5945;SDS011;2998;48.206;16.394;2022-09-09T06:58:30;1.30;;;1.20;;
5945;SDS011;2998;48.206;16.394;2022-09-09T07:01:02;2.20;;;2.10;;
5945;SDS011;2998;48.206;16.394;2022-09-09T07:03:31;2.33;;;1.50;;
5945;SDS011;2998;48.206;16.394;2022-09-09T07:05:59;2.60;;;1.60;;
5945;SDS011;2998;48.206;16.394;2022-09-09T07:08:27;19.03;;;2.00;;
5945;SDS011;2998;48.206;16.394;2022-09-09T07:11:02;1.57;;;1.47;;
5945;SDS011;2998;48.206;16.394;2022-09-09T07:13:37;2.23;;;1.37;;
5945;SDS011;2998;48.206;16.394;2022-09-09T07:16:06;1.70;;;1.60;;
5945;SDS011;2998;48.206;16.394;2022-09-09T07:18:37;1.60;;;1.50;;
5945;SDS011;2998;48.206;16.394;2022-09-09T07:21:05;3.23;;;1.60;;
5945;SDS011;2998;48.206;16.394;2022-09-09T07:23:33;1.67;;;1.57;;
5945;SDS011;2998;48.206;16.394;2022-09-09T07:26:06;2.07;;;1.97;;
5945;SDS011;2998;48.206;16.394;2022-09-09T07:28:35;4.00;;;1.60;;
5945;SDS011;2998;48.206;16.394;2022-09-09T07:31:04;2.33;;;2.10;;
5945;SDS011;2998;48.206;16.394;2022-09-09T07:33:34;3.60;;;2.10;;
5945;SDS011;2998;48.206;16.394;2022-09-09T07:36:03;1.80;;;1.70;;
5945;SDS011;2998;48.206;16.394;2022-09-09T07:38:37;1.67;;;1.57;;
5945;SDS011;2998;48.206;16.394;2022-09-09T07:41:07;1.70;;;1.60;;
5945;SDS011;2998;48.206;16.394;2022-09-09T07:43:38;1.93;;;1.83;;
5945;SDS011;2998;48.206;16.394;2022-09-09T07:46:08;1.80;;;1.70;;
5945;SDS011;2998;48.206;16.394;2022-09-09T07:48:36;2.37;;;1.40;;
5945;SDS011;2998;48.206;16.394;2022-09-09T07:51:05;2.03;;;1.70;;
5945;SDS011;2998;48.206;16.394;2022-09-09T07:53:34;1.50;;;1.40;;
5945;SDS011;2998;48.206;16.394;2022-09-09T07:56:07;1.97;;;1.47;;
5945;SDS011;2998;48.206;16.394;2022-09-09T07:58:36;1.50;;;1.20;;
5945;SDS011;2998;48.206;16.394;2022-09-09T08:01:06;1.50;;;1.40;;
5945;SDS011;2998;48.206;16.394;2022-09-09T08:03:36;1.63;;;1.53;;
5945;SDS011;2998;48.206;16.394;2022-09-09T08:06:04;1.47;;;1.37;;
5945;SDS011;2998;48.206;16.394;2022-09-09T08:08:34;3.60;;;2.10;;
5945;SDS011;2998;48.206;16.394;2022-09-09T08:11:04;35.47;;;2.20;;
5945;SDS011;2998;48.206;16.394;2022-09-09T08:13:35;1.80;;;1.70;;
5945;SDS011;2998;48.206;16.394;2022-09-09T08:16:04;2.40;;;1.60;;
5945;SDS011;2998;48.206;16.394;2022-09-09T08:18:33;1.40;;;1.30;;
5945;SDS011;2998;48.206;16.394;2022-09-09T08:21:05;2.93;;;2.00;;
5945;SDS011;2998;48.206;16.394;2022-09-09T08:23:38;4.03;;;1.80;;
5945;SDS011;2998;48.206;16.394;2022-09-09T08:26:10;2.03;;;1.50;;
5945;SDS011;2998;48.206;16.394;2022-09-09T08:28:41;1.70;;;1.60;;
5945;SDS011;2998;48.206;16.394;2022-09-09T08:31:10;1.63;;;1.53;;
5945;SDS011;2998;48.206;16.394;2022-09-09T08:33:44;2.90;;;1.73;;
5945;SDS011;2998;48.206;16.394;2022-09-09T08:36:19;2.03;;;1.50;;
5945;SDS011;2998;48.206;16.394;2022-09-09T08:38:48;3.13;;;1.20;;
5945;SDS011;2998;48.206;16.394;2022-09-09T08:41:36;3.50;;;1.50;;
5945;SDS011;2998;48.206;16.394;2022-09-09T08:44:13;1.33;;;1.23;;
5945;SDS011;2998;48.206;16.394;2022-09-09T08:46:46;6.50;;;1.70;;
5945;SDS011;2998;48.206;16.394;2022-09-09T08:49:22;2.70;;;1.37;;
5945;SDS011;2998;48.206;16.394;2022-09-09T08:51:59;1.00;;;0.90;;
5945;SDS011;2998;48.206;16.394;2022-09-09T08:54:30;1.83;;;1.10;;
5945;SDS011;2998;48.206;16.394;2022-09-09T08:57:18;4.60;;;1.20;;
5945;SDS011;2998;48.206;16.394;2022-09-09T08:59:50;1.47;;;1.27;;
5945;SDS011;2998;48.206;16.394;2022-09-09T09:02:22;2.50;;;1.00;;
5945;SDS011;2998;48.206;16.394;2022-09-09T09:04:58;3.27;;;1.33;;
5945;SDS011;2998;48.206;16.394;2022-09-09T09:07:36;1.30;;;1.20;;
5945;SDS011;2998;48.206;16.394;2022-09-09T09:10:12;1.10;;;1.00;;
5945;SDS011;2998;48.206;16.394;2022-09-09T09:13:07;1.53;;;1.43;;
5945;SDS011;2998;48.206;16.394;2022-09-09T09:15:37;2.40;;;1.50;;
5945;SDS011;2998;48.206;16.394;2022-09-09T09:18:07;1.57;;;1.47;;
5945;SDS011;2998;48.206;16.394;2022-09-09T09:20:40;1.50;;;1.40;;
5945;SDS011;2998;48.206;16.394;2022-09-09T09:23:15;1.60;;;1.50;;
5945;SDS011;2998;48.206;16.394;2022-09-09T09:25:48;1.60;;;1.50;;
5945;SDS011;2998;48.206;16.394;2022-09-09T09:28:18;2.00;;;1.90;;
5945;SDS011;2998;48.206;16.394;2022-09-09T09:30:52;2.50;;;2.40;;
5945;SDS011;2998;48.206;16.394;2022-09-09T09:33:22;2.10;;;2.00;;
5945;SDS011;2998;48.206;16.394;2022-09-09T09:35:52;2.20;;;2.10;;
5945;SDS011;2998;48.206;16.394;2022-09-09T09:38:21;2.50;;;2.00;;
5945;SDS011;2998;48.206;16.394;2022-09-09T09:41:10;1.53;;;1.43;;
5945;SDS011;2998;48.206;16.394;2022-09-09T09:43:39;3.47;;;1.37;;
5945;SDS011;2998;48.206;16.394;2022-09-09T09:46:19;1.47;;;1.37;;
5945;SDS011;2998;48.206;16.394;2022-09-09T09:48:56;1.57;;;1.47;;
5945;SDS011;2998;48.206;16.394;2022-09-09T09:51:24;1.40;;;1.30;;
5945;SDS011;2998;48.206;16.394;2022-09-09T09:53:53;2.00;;;1.80;;
5945;SDS011;2998;48.206;16.394;2022-09-09T09:56:28;2.90;;;1.43;;
5945;SDS011;2998;48.206;16.394;2022-09-09T09:58:56;1.50;;;1.40;;
5945;SDS011;2998;48.206;16.394;2022-09-09T10:01:27;2.00;;;1.90;;
5945;SDS011;2998;48.206;16.394;2022-09-09T10:03:57;3.13;;;1.80;;
5945;SDS011;2998;48.206;16.394;2022-09-09T10:06:29;1.30;;;1.20;;
5945;SDS011;2998;48.206;16.394;2022-09-09T10:08:58;1.40;;;1.20;;
5945;SDS011;2998;48.206;16.394;2022-09-09T10:11:30;1.43;;;1.33;;
5945;SDS011;2998;48.206;16.394;2022-09-09T10:14:06;1.43;;;1.20;;
5945;SDS011;2998;48.206;16.394;2022-09-09T10:16:44;1.17;;;1.10;;
5945;SDS011;2998;48.206;16.394;2022-09-09T10:19:21;1.40;;;1.10;;
5945;SDS011;2998;48.206;16.394;2022-09-09T10:22:05;1.17;;;1.07;;
5945;SDS011;2998;48.206;16.394;2022-09-09T10:24:43;0.83;;;0.80;;
5945;SDS011;2998;48.206;16.394;2022-09-09T10:27:31;1.07;;;0.90;;
5945;SDS011;2998;48.206;16.394;2022-09-09T10:30:09;0.70;;;0.50;;
5945;SDS011;2998;48.206;16.394;2022-09-09T10:32:44;1.20;;;1.10;;
5945;SDS011;2998;48.206;16.394;2022-09-09T10:35:17;0.80;;;0.80;;
5945;SDS011;2998;48.206;16.394;2022-09-09T10:37:55;1.43;;;0.83;;
5945;SDS011;2998;48.206;16.394;2022-09-09T10:40:38;1.10;;;1.00;;
5945;SDS011;2998;48.206;16.394;2022-09-09T10:43:30;0.80;;;0.80;;
5945;SDS011;2998;48.206;16.394;2022-09-09T10:46:06;2.13;;;0.90;;
5945;SDS011;2998;48.206;16.394;2022-09-09T10:48:41;0.83;;;0.83;;
5945;SDS011;2998;48.206;16.394;2022-09-09T10:51:23;1.00;;;0.70;;
5945;SDS011;2998;48.206;16.394;2022-09-09T10:53:53;1.00;;;0.90;;
5945;SDS011;2998;48.206;16.394;2022-09-09T10:56:32;1.93;;;1.20;;
5945;SDS011;2998;48.206;16.394;2022-09-09T10:59:02;1.33;;;0.80;;
5945;SDS011;2998;48.206;16.394;2022-09-09T11:01:33;1.50;;;0.80;;
5945;SDS011;2998;48.206;16.394;2022-09-09T11:04:10;1.10;;;1.00;;
5945;SDS011;2998;48.206;16.394;2022-09-09T11:06:41;1.10;;;1.00;;
5945;SDS011;2998;48.206;16.394;2022-09-09T11:09:14;2.80;;;0.90;;
5945;SDS011;2998;48.206;16.394;2022-09-09T11:11:45;1.63;;;1.20;;
5945;SDS011;2998;48.206;16.394;2022-09-09T11:14:15;3.40;;;1.33;;
5945;SDS011;2998;48.206;16.394;2022-09-09T11:16:48;2.70;;;1.00;;
5945;SDS011;2998;48.206;16.394;2022-09-09T11:19:21;1.10;;;1.00;;
5945;SDS011;2998;48.206;16.394;2022-09-09T11:21:54;1.07;;;0.97;;
5945;SDS011;2998;48.206;16.394;2022-09-09T11:24:25;2.40;;;1.13;;
5945;SDS011;2998;48.206;16.394;2022-09-09T11:26:56;0.87;;;0.73;;
5945;SDS011;2998;48.206;16.394;2022-09-09T11:29:35;3.00;;;1.30;;
5945;SDS011;2998;48.206;16.394;2022-09-09T11:35:23;2.90;;;2.70;;
5945;SDS011;2998;48.206;16.394;2022-09-09T11:38:01;3.00;;;2.73;;
5945;SDS011;2998;48.206;16.394;2022-09-09T11:40:37;3.97;;;2.67;;
5945;SDS011;2998;48.206;16.394;2022-09-09T11:43:09;2.10;;;2.00;;
5945;SDS011;2998;48.206;16.394;2022-09-09T11:45:39;2.60;;;2.50;;
5945;SDS011;2998;48.206;16.394;2022-09-09T11:48:20;2.40;;;2.30;;
5945;SDS011;2998;48.206;16.394;2022-09-09T11:51:00;2.60;;;2.50;;
5945;SDS011;2998;48.206;16.394;2022-09-09T11:53:47;2.60;;;2.40;;
5945;SDS011;2998;48.206;16.394;2022-09-09T11:56:23;2.27;;;2.17;;
5945;SDS011;2998;48.206;16.394;2022-09-09T11:58:54;2.17;;;2.07;;
5945;SDS011;2998;48.206;16.394;2022-09-09T12:01:33;2.90;;;2.23;;
5945;SDS011;2998;48.206;16.394;2022-09-09T12:04:07;6.10;;;2.10;;
5945;SDS011;2998;48.206;16.394;2022-09-09T12:06:50;2.13;;;2.03;;
5945;SDS011;2998;48.206;16.394;2022-09-09T12:09:22;2.10;;;2.00;;
5945;SDS011;2998;48.206;16.394;2022-09-09T12:11:52;2.20;;;2.10;;
5945;SDS011;2998;48.206;16.394;2022-09-09T12:14:21;2.20;;;1.90;;
5945;SDS011;2998;48.206;16.394;2022-09-09T12:16:51;2.30;;;2.10;;
5945;SDS011;2998;48.206;16.394;2022-09-09T12:19:19;2.10;;;1.90;;
5945;SDS011;2998;48.206;16.394;2022-09-09T12:21:57;2.00;;;1.80;;
5945;SDS011;2998;48.206;16.394;2022-09-09T12:24:30;1.90;;;1.80;;
5945;SDS011;2998;48.206;16.394;2022-09-09T12:27:02;1.30;;;1.20;;
5945;SDS011;2998;48.206;16.394;2022-09-09T12:29:37;1.50;;;1.40;;
5945;SDS011;2998;48.206;16.394;2022-09-09T12:32:10;1.30;;;1.20;;
5945;SDS011;2998;48.206;16.394;2022-09-09T12:34:40;1.43;;;1.33;;
5945;SDS011;2998;48.206;16.394;2022-09-09T12:37:16;2.20;;;2.00;;
5945;SDS011;2998;48.206;16.394;2022-09-09T12:39:47;3.93;;;1.77;;
5945;SDS011;2998;48.206;16.394;2022-09-09T12:42:18;1.70;;;1.60;;
5945;SDS011;2998;48.206;16.394;2022-09-09T12:44:53;1.77;;;1.67;;
5945;SDS011;2998;48.206;16.394;2022-09-09T12:47:24;2.63;;;1.93;;
5945;SDS011;2998;48.206;16.394;2022-09-09T12:49:56;2.53;;;2.33;;
5945;SDS011;2998;48.206;16.394;2022-09-09T12:52:28;2.97;;;2.77;;
5945;SDS011;2998;48.206;16.394;2022-09-09T12:54:58;3.67;;;3.40;;
5945;SDS011;2998;48.206;16.394;2022-09-09T12:57:29;6.40;;;3.90;;
5945;SDS011;2998;48.206;16.394;2022-09-09T13:00:05;8.33;;;5.27;;
5945;SDS011;2998;48.206;16.394;2022-09-09T13:02:36;6.40;;;5.43;;
5945;SDS011;2998;48.206;16.394;2022-09-09T13:05:14;6.33;;;5.87;;
5945;SDS011;2998;48.206;16.394;2022-09-09T13:07:45;8.13;;;6.60;;
5945;SDS011;2998;48.206;16.394;2022-09-09T13:10:14;6.53;;;5.77;;
5945;SDS011;2998;48.206;16.394;2022-09-09T13:13:01;5.67;;;5.37;;
5945;SDS011;2998;48.206;16.394;2022-09-09T13:15:29;6.60;;;6.10;;
5945;SDS011;2998;48.206;16.394;2022-09-09T13:17:58;5.80;;;5.00;;
5945;SDS011;2998;48.206;16.394;2022-09-09T13:20:27;5.30;;;5.00;;
5945;SDS011;2998;48.206;16.394;2022-09-09T13:22:58;4.70;;;4.43;;
5945;SDS011;2998;48.206;16.394;2022-09-09T13:25:27;6.00;;;4.47;;
5945;SDS011;2998;48.206;16.394;2022-09-09T13:27:56;4.00;;;3.70;;
5945;SDS011;2998;48.206;16.394;2022-09-09T13:30:26;3.70;;;3.50;;
5945;SDS011;2998;48.206;16.394;2022-09-09T13:33:00;3.27;;;3.17;;
5945;SDS011;2998;48.206;16.394;2022-09-09T13:35:29;3.57;;;3.33;;
5945;SDS011;2998;48.206;16.394;2022-09-09T13:37:59;3.77;;;3.57;;
5945;SDS011;2998;48.206;16.394;2022-09-09T13:40:35;4.77;;;3.80;;
5945;SDS011;2998;48.206;16.394;2022-09-09T13:43:03;3.53;;;3.33;;
5945;SDS011;2998;48.206;16.394;2022-09-09T13:45:31;3.33;;;3.03;;
5945;SDS011;2998;48.206;16.394;2022-09-09T13:48:08;3.80;;;3.60;;
5945;SDS011;2998;48.206;16.394;2022-09-09T13:50:38;4.47;;;3.53;;
5945;SDS011;2998;48.206;16.394;2022-09-09T13:53:09;6.50;;;2.80;;
5945;SDS011;2998;48.206;16.394;2022-09-09T13:55:37;2.93;;;2.83;;
5945;SDS011;2998;48.206;16.394;2022-09-09T13:58:05;3.60;;;3.33;;
5945;SDS011;2998;48.206;16.394;2022-09-09T14:00:33;3.90;;;3.43;;
5945;SDS011;2998;48.206;16.394;2022-09-09T14:03:02;2.80;;;2.60;;
5945;SDS011;2998;48.206;16.394;2022-09-09T14:05:30;5.30;;;3.37;;
5945;SDS011;2998;48.206;16.394;2022-09-09T14:07:59;3.17;;;2.97;;
5945;SDS011;2998;48.206;16.394;2022-09-09T14:10:29;3.77;;;3.47;;
5945;SDS011;2998;48.206;16.394;2022-09-09T14:12:57;5.20;;;3.00;;
5945;SDS011;2998;48.206;16.394;2022-09-09T14:15:25;3.83;;;3.37;;
5945;SDS011;2998;48.206;16.394;2022-09-09T14:17:53;3.43;;;3.13;;
5945;SDS011;2998;48.206;16.394;2022-09-09T14:20:21;4.70;;;3.53;;
5945;SDS011;2998;48.206;16.394;2022-09-09T14:22:49;3.57;;;3.27;;
5945;SDS011;2998;48.206;16.394;2022-09-09T14:25:17;3.13;;;2.70;;
5945;SDS011;2998;48.206;16.394;2022-09-09T14:27:46;3.67;;;3.37;;
5945;SDS011;2998;48.206;16.394;2022-09-09T14:30:14;3.53;;;3.33;;
5945;SDS011;2998;48.206;16.394;2022-09-09T14:32:42;6.17;;;4.10;;
5945;SDS011;2998;48.206;16.394;2022-09-09T14:35:10;5.00;;;3.53;;
5945;SDS011;2998;48.206;16.394;2022-09-09T14:37:38;3.77;;;3.47;;
5945;SDS011;2998;48.206;16.394;2022-09-09T14:40:06;3.63;;;3.43;;
5945;SDS011;2998;48.206;16.394;2022-09-09T14:42:35;5.20;;;4.90;;
5945;SDS011;2998;48.206;16.394;2022-09-09T14:45:06;10.53;;;9.93;;
5945;SDS011;2998;48.206;16.394;2022-09-09T14:47:34;5.23;;;4.83;;
5945;SDS011;2998;48.206;16.394;2022-09-09T14:50:03;3.53;;;3.37;;
5945;SDS011;2998;48.206;16.394;2022-09-09T14:52:31;3.23;;;3.03;;
5945;SDS011;2998;48.206;16.394;2022-09-09T14:54:59;7.73;;;6.03;;
5945;SDS011;2998;48.206;16.394;2022-09-09T14:57:27;2.33;;;1.60;;
5945;SDS011;2998;48.206;16.394;2022-09-09T14:59:55;3.50;;;3.30;;
5945;SDS011;2998;48.206;16.394;2022-09-09T15:02:24;5.03;;;1.93;;
5945;SDS011;2998;48.206;16.394;2022-09-09T15:04:52;2.90;;;1.57;;
5945;SDS011;2998;48.206;16.394;2022-09-09T15:07:23;3.27;;;1.60;;
5945;SDS011;2998;48.206;16.394;2022-09-09T15:09:51;4.37;;;3.33;;
5945;SDS011;2998;48.206;16.394;2022-09-09T15:12:21;4.30;;;1.60;;
5945;SDS011;2998;48.206;16.394;2022-09-09T15:14:49;2.13;;;1.93;;
5945;SDS011;2998;48.206;16.394;2022-09-09T15:17:18;2.60;;;2.40;;
5945;SDS011;2998;48.206;16.394;2022-09-09T15:19:48;3.30;;;3.10;;
5945;SDS011;2998;48.206;16.394;2022-09-09T15:22:16;4.30;;;4.00;;
5945;SDS011;2998;48.206;16.394;2022-09-09T15:24:45;6.00;;;3.63;;
5945;SDS011;2998;48.206;16.394;2022-09-09T15:27:13;16.67;;;11.87;;
5945;SDS011;2998;48.206;16.394;2022-09-09T15:29:41;8.20;;;5.40;;
5945;SDS011;2998;48.206;16.394;2022-09-09T15:32:10;4.03;;;3.80;;